createdAt,value
2017-09-17T00:00:30.630Z,8.01
2017-09-17T00:01:36.776Z,8.05
2017-09-17T00:02:44.447Z,8.00
2017-09-17T00:03:50.551Z,7.92
2017-09-17T00:04:56.855Z,7.86
2017-09-17T00:06:03.139Z,7.83
2017-09-17T00:07:09.590Z,7.80
2017-09-17T00:08:15.875Z,7.76
2017-09-17T00:09:22.196Z,7.70
2017-09-17T00:10:28.387Z,7.69
2017-09-17T00:11:35.868Z,7.68
2017-09-17T00:12:42.369Z,7.66
2017-09-17T00:13:48.959Z,7.64
2017-09-17T00:14:55.380Z,7.69
2017-09-17T00:16:01.635Z,7.72
2017-09-17T00:17:08.764Z,7.87
2017-09-17T00:18:15.029Z,8.09
2017-09-17T00:19:21.186Z,8.18
2017-09-17T00:20:27.520Z,8.26
2017-09-17T00:21:34.478Z,8.33
2017-09-17T00:22:40.943Z,8.34
2017-09-17T00:23:47.315Z,8.29
2017-09-17T00:24:53.704Z,8.16
2017-09-17T00:26:00.080Z,8.07
2017-09-17T00:27:06.576Z,7.87
2017-09-17T00:28:12.993Z,7.77
2017-09-17T00:29:19.154Z,7.71
2017-09-17T00:30:26.298Z,7.69
2017-09-17T00:31:33.253Z,7.70
2017-09-17T00:32:40.161Z,7.70
2017-09-17T00:33:46.491Z,7.68
2017-09-17T00:34:52.856Z,7.66
2017-09-17T00:35:59.523Z,7.58
2017-09-17T00:37:06.464Z,7.52
2017-09-17T00:38:12.968Z,7.52
2017-09-17T00:39:19.206Z,7.69
2017-09-17T00:40:25.521Z,7.66
2017-09-17T00:41:31.391Z,7.78
2017-09-17T00:42:38.460Z,7.92
2017-09-17T00:43:45.760Z,7.83
2017-09-17T00:44:52.405Z,7.73
2017-09-17T00:45:58.786Z,7.62
2017-09-17T00:47:05.351Z,7.56
2017-09-17T00:48:11.732Z,7.63
2017-09-17T00:49:17.915Z,7.56
2017-09-17T00:50:24.091Z,7.55
2017-09-17T00:51:29.943Z,7.47
2017-09-17T00:52:35.942Z,7.40
2017-09-17T00:53:41.420Z,7.33
2017-09-17T00:54:46.779Z,7.26
2017-09-17T00:55:52.912Z,7.26
2017-09-17T00:56:59.948Z,7.28
2017-09-17T00:58:06.163Z,7.24
2017-09-17T00:59:12.840Z,7.18
2017-09-17T01:00:18.699Z,7.24
2017-09-17T01:01:24.881Z,7.24
2017-09-17T01:02:31.087Z,7.17
2017-09-17T01:03:37.497Z,7.11
2017-09-17T01:04:43.554Z,7.12
2017-09-17T01:05:50.045Z,7.13
2017-09-17T01:06:56.356Z,7.13
2017-09-17T01:08:02.254Z,7.14
2017-09-17T01:09:08.634Z,7.08
2017-09-17T01:10:14.926Z,7.09
2017-09-17T01:11:21.509Z,7.29
2017-09-17T01:12:28.122Z,7.39
2017-09-17T01:13:35.164Z,7.35
2017-09-17T01:14:41.340Z,7.39
2017-09-17T01:15:48.063Z,7.29
2017-09-17T01:16:54.293Z,7.24
2017-09-17T01:18:00.523Z,7.31
2017-09-17T01:19:07.220Z,7.18
2017-09-17T01:20:13.603Z,7.12
2017-09-17T01:21:19.981Z,7.01
2017-09-17T01:22:26.097Z,6.91
2017-09-17T01:23:32.072Z,6.92
2017-09-17T01:24:37.926Z,6.88
2017-09-17T01:25:45.016Z,6.89
2017-09-17T01:26:51.403Z,6.89
2017-09-17T01:27:58.132Z,6.87
2017-09-17T01:29:04.745Z,6.83
2017-09-17T01:30:10.953Z,6.79
2017-09-17T01:31:17.470Z,6.75
2017-09-17T01:32:24.054Z,6.71
2017-09-17T01:33:30.275Z,6.68
2017-09-17T01:34:36.478Z,6.70
2017-09-17T01:35:43.022Z,6.67
2017-09-17T01:36:49.352Z,6.62
2017-09-17T01:37:55.649Z,6.60
2017-09-17T01:39:01.843Z,6.72
2017-09-17T01:40:07.659Z,6.86
2017-09-17T01:41:13.973Z,7.09
2017-09-17T01:42:20.258Z,7.17
2017-09-17T01:43:26.595Z,7.03
2017-09-17T01:44:33.191Z,6.89
2017-09-17T01:45:39.556Z,6.80
2017-09-17T01:46:46.327Z,6.71
2017-09-17T01:47:52.705Z,6.67
2017-09-17T01:48:59.282Z,6.59
2017-09-17T01:50:05.795Z,6.62
2017-09-17T01:51:12.191Z,6.66
2017-09-17T01:52:18.725Z,6.60
2017-09-17T01:53:24.847Z,6.53
2017-09-17T01:54:31.567Z,6.47
2017-09-17T01:55:37.874Z,6.38
2017-09-17T01:56:44.286Z,6.37
2017-09-17T01:57:50.741Z,6.35
2017-09-17T01:58:56.804Z,6.32
2017-09-17T02:00:03.103Z,6.32
2017-09-17T02:01:09.425Z,6.38
2017-09-17T02:02:16.948Z,6.38
2017-09-17T02:03:23.211Z,6.48
2017-09-17T02:04:29.667Z,6.55
2017-09-17T02:05:36.190Z,6.60
2017-09-17T02:06:42.714Z,6.68
2017-09-17T02:07:48.896Z,6.71
2017-09-17T02:08:55.348Z,6.68
2017-09-17T02:10:01.656Z,6.69
2017-09-17T02:11:08.262Z,6.61
2017-09-17T02:12:14.369Z,6.65
2017-09-17T02:13:20.597Z,6.80
2017-09-17T02:14:26.816Z,6.90
2017-09-17T02:15:34.444Z,6.80
2017-09-17T02:16:41.782Z,6.76
2017-09-17T02:17:48.041Z,6.68
2017-09-17T02:18:55.309Z,6.66
2017-09-17T02:20:02.618Z,6.67
2017-09-17T02:21:09.129Z,6.63
2017-09-17T02:22:16.396Z,6.69
2017-09-17T02:23:23.667Z,6.76
2017-09-17T02:24:31.220Z,6.67
2017-09-17T02:25:37.711Z,6.58
2017-09-17T02:26:44.202Z,6.51
2017-09-17T02:27:50.828Z,6.41
2017-09-17T02:28:58.068Z,6.26
2017-09-17T02:30:03.946Z,6.21
2017-09-17T02:31:11.291Z,6.17
2017-09-17T02:32:17.704Z,6.16
2017-09-17T02:33:24.340Z,6.14
2017-09-17T02:34:31.271Z,6.15
2017-09-17T02:35:38.054Z,6.16
2017-09-17T02:36:44.400Z,6.16
2017-09-17T02:37:50.648Z,6.14
2017-09-17T02:38:57.851Z,6.12
2017-09-17T02:40:03.731Z,6.11
2017-09-17T02:41:10.299Z,6.08
2017-09-17T02:42:16.370Z,6.04
2017-09-17T02:43:23.502Z,6.04
2017-09-17T02:44:30.113Z,6.02
2017-09-17T02:45:36.516Z,6.02
2017-09-17T02:46:42.642Z,6.01
2017-09-17T02:47:48.817Z,6.00
2017-09-17T02:48:55.044Z,6.00
2017-09-17T02:50:02.293Z,6.08
2017-09-17T02:51:09.230Z,6.24
2017-09-17T02:52:15.530Z,6.31
2017-09-17T02:53:21.747Z,6.38
2017-09-17T02:54:28.174Z,6.29
2017-09-17T02:55:35.259Z,6.25
2017-09-17T02:56:41.611Z,6.24
2017-09-17T02:57:48.624Z,6.24
2017-09-17T02:58:55.551Z,6.30
2017-09-17T03:00:02.273Z,6.27
2017-09-17T03:01:08.231Z,6.23
2017-09-17T03:02:14.485Z,6.13
2017-09-17T03:03:20.745Z,6.07
2017-09-17T03:04:27.147Z,6.00
2017-09-17T03:05:33.525Z,5.94
2017-09-17T03:06:40.021Z,5.91
2017-09-17T03:07:46.229Z,5.87
2017-09-17T03:08:52.548Z,5.84
2017-09-17T03:09:58.914Z,5.86
2017-09-17T03:11:05.800Z,5.96
2017-09-17T03:12:13.510Z,5.91
2017-09-17T03:13:20.138Z,5.85
2017-09-17T03:14:26.474Z,5.79
2017-09-17T03:15:32.659Z,5.74
2017-09-17T03:16:39.509Z,5.74
2017-09-17T03:17:46.643Z,5.73
2017-09-17T03:18:53.065Z,5.71
2017-09-17T03:19:59.672Z,5.70
2017-09-17T03:21:06.190Z,5.70
2017-09-17T03:22:12.754Z,5.70
2017-09-17T03:23:19.151Z,5.78
2017-09-17T03:24:26.043Z,5.82
2017-09-17T03:25:32.439Z,5.90
2017-09-17T03:26:39.652Z,5.82
2017-09-17T03:27:46.090Z,5.78
2017-09-17T03:28:52.521Z,5.91
2017-09-17T03:29:58.701Z,5.90
2017-09-17T03:31:05.957Z,5.95
2017-09-17T03:32:12.285Z,5.89
2017-09-17T03:33:18.794Z,6.00
2017-09-17T03:34:25.344Z,6.04
2017-09-17T03:35:31.637Z,6.14
2017-09-17T03:36:38.136Z,6.16
2017-09-17T03:37:45.009Z,6.09
2017-09-17T03:38:51.387Z,6.02
2017-09-17T03:39:57.735Z,5.98
2017-09-17T03:41:04.158Z,5.94
2017-09-17T03:42:10.090Z,5.94
2017-09-17T03:43:16.766Z,6.05
2017-09-17T03:44:23.032Z,6.09
2017-09-17T03:45:29.326Z,6.11
2017-09-17T03:46:35.713Z,6.06
2017-09-17T03:47:42.201Z,6.05
2017-09-17T03:48:48.455Z,6.21
2017-09-17T03:49:55.106Z,6.10
2017-09-17T03:51:01.426Z,6.08
2017-09-17T03:52:07.707Z,6.05
2017-09-17T03:53:14.042Z,5.95
2017-09-17T03:54:21.107Z,5.83
2017-09-17T03:55:27.688Z,5.75
2017-09-17T03:56:33.985Z,5.72
2017-09-17T03:57:41.168Z,5.70
2017-09-17T03:58:47.555Z,5.70
2017-09-17T03:59:54.419Z,5.71
2017-09-17T04:01:00.797Z,5.80
2017-09-17T04:02:08.028Z,5.94
2017-09-17T04:03:15.555Z,6.13
2017-09-17T04:04:21.996Z,6.27
2017-09-17T04:05:28.812Z,6.35
2017-09-17T04:06:35.928Z,6.36
2017-09-17T04:07:42.461Z,6.37
2017-09-17T04:08:49.071Z,6.23
2017-09-17T04:09:56.087Z,5.94
2017-09-17T04:11:02.507Z,5.80
2017-09-17T04:12:09.123Z,5.76
2017-09-17T04:13:16.422Z,5.70
2017-09-17T04:14:23.405Z,5.67
2017-09-17T04:15:31.007Z,5.74
2017-09-17T04:16:39.129Z,5.90
2017-09-17T04:17:46.372Z,5.84
2017-09-17T04:18:56.420Z,5.76
2017-09-17T04:20:04.117Z,5.84
2017-09-17T04:21:12.437Z,5.84
2017-09-17T04:22:21.347Z,5.76
2017-09-17T04:23:30.572Z,5.67
2017-09-17T04:24:38.786Z,5.58
2017-09-17T04:25:47.449Z,5.55
2017-09-17T04:26:55.959Z,5.55
2017-09-17T04:28:03.714Z,5.66
2017-09-17T04:29:11.750Z,5.80
2017-09-17T04:30:19.686Z,5.93
2017-09-17T04:31:28.455Z,6.08
2017-09-17T04:32:37.601Z,6.01
2017-09-17T04:33:45.759Z,5.86
2017-09-17T04:34:54.778Z,5.96
2017-09-17T04:36:03.693Z,6.02
2017-09-17T04:37:13.713Z,5.77
2017-09-17T04:38:23.686Z,5.65
2017-09-17T04:39:34.049Z,5.57
2017-09-17T04:40:43.683Z,5.49
2017-09-17T04:41:52.996Z,5.55
2017-09-17T04:43:02.706Z,5.58
2017-09-17T04:44:10.733Z,5.76
2017-09-17T04:45:20.745Z,5.78
2017-09-17T04:46:31.779Z,5.64
2017-09-17T04:47:41.699Z,5.66
2017-09-17T04:48:51.706Z,5.63
2017-09-17T04:50:02.788Z,5.51
2017-09-17T04:51:12.750Z,5.43
2017-09-17T04:52:21.714Z,5.36
2017-09-17T04:53:31.821Z,5.32
2017-09-17T04:54:41.599Z,5.49
2017-09-17T04:55:50.731Z,5.60
2017-09-17T04:56:59.620Z,5.49
2017-09-17T04:58:10.741Z,5.42
2017-09-17T04:59:21.578Z,5.41
2017-09-17T05:00:33.645Z,5.54
2017-09-17T05:01:42.747Z,5.78
2017-09-17T05:02:52.648Z,5.94
2017-09-17T05:04:04.695Z,5.89
2017-09-17T05:05:14.751Z,5.72
2017-09-17T05:06:23.647Z,5.63
2017-09-17T05:07:33.964Z,5.55
2017-09-17T05:08:43.677Z,5.48
2017-09-17T05:09:53.626Z,5.44
2017-09-17T05:11:04.593Z,5.43
2017-09-17T05:12:13.683Z,5.56
2017-09-17T05:13:24.545Z,5.68
2017-09-17T05:14:33.655Z,5.82
2017-09-17T05:15:43.726Z,5.93
2017-09-17T05:16:52.731Z,5.86
2017-09-17T05:18:01.626Z,5.76
2017-09-17T05:19:10.622Z,5.68
2017-09-17T05:20:19.579Z,5.62
2017-09-17T05:21:28.601Z,5.65
2017-09-17T05:22:37.441Z,5.63
2017-09-17T05:23:46.287Z,5.60
2017-09-17T05:24:53.928Z,5.63
2017-09-17T05:26:03.627Z,5.65
2017-09-17T05:27:17.677Z,5.66
2017-09-17T05:28:28.839Z,5.66
2017-09-17T05:29:38.643Z,5.65
2017-09-17T05:30:49.575Z,5.68
2017-09-17T05:31:59.780Z,5.86
2017-09-17T05:33:09.711Z,6.01
2017-09-17T05:34:19.737Z,6.17
2017-09-17T05:35:29.766Z,6.21
2017-09-17T05:36:38.757Z,6.24
2017-09-17T05:37:48.683Z,6.20
2017-09-17T05:38:59.698Z,6.18
2017-09-17T05:40:09.662Z,6.18
2017-09-17T05:41:21.757Z,6.20
2017-09-17T05:42:31.916Z,6.13
2017-09-17T05:43:42.586Z,6.15
2017-09-17T05:44:53.063Z,6.17
2017-09-17T05:46:06.782Z,6.18
2017-09-17T05:47:19.821Z,6.19
2017-09-17T05:48:29.625Z,6.20
2017-09-17T05:49:39.812Z,6.27
2017-09-17T05:50:49.674Z,6.32
2017-09-17T05:52:00.550Z,6.39
2017-09-17T05:53:10.702Z,6.48
2017-09-17T05:54:20.716Z,6.52
2017-09-17T05:55:30.637Z,6.58
2017-09-17T05:56:40.671Z,6.62
2017-09-17T05:57:50.486Z,6.68
2017-09-17T05:59:00.598Z,6.78
2017-09-17T06:00:12.598Z,6.87
2017-09-17T06:01:21.595Z,6.96
2017-09-17T06:02:31.495Z,7.03
2017-09-17T06:03:42.302Z,7.20
2017-09-17T06:04:59.642Z,7.49
2017-09-17T06:06:09.538Z,7.73
2017-09-17T06:07:18.593Z,7.86
2017-09-17T06:08:30.603Z,7.98
2017-09-17T06:09:40.657Z,8.11
2017-09-17T06:10:50.652Z,8.19
2017-09-17T06:12:01.339Z,8.28
2017-09-17T06:13:10.687Z,8.32
2017-09-17T06:14:21.605Z,8.41
2017-09-17T06:15:32.568Z,8.43
2017-09-17T06:16:44.478Z,8.48
2017-09-17T06:17:54.632Z,8.54
2017-09-17T06:19:05.546Z,8.63
2017-09-17T06:20:16.548Z,8.69
2017-09-17T06:21:26.573Z,8.79
2017-09-17T06:22:36.569Z,9.02
2017-09-17T06:23:46.656Z,9.12
2017-09-17T06:24:54.694Z,9.10
2017-09-17T06:26:03.616Z,9.10
2017-09-17T06:27:13.652Z,9.14
2017-09-17T06:28:23.546Z,9.26
2017-09-17T06:29:33.515Z,9.34
2017-09-17T06:30:43.428Z,9.37
2017-09-17T06:31:53.501Z,9.33
2017-09-17T06:33:03.551Z,9.44
2017-09-17T06:34:13.445Z,9.50
2017-09-17T06:35:25.454Z,9.73
2017-09-17T06:36:34.729Z,9.92
2017-09-17T06:37:44.471Z,9.89
2017-09-17T06:38:56.550Z,9.87
2017-09-17T06:40:08.387Z,10.04
2017-09-17T06:41:19.448Z,9.96
2017-09-17T06:42:29.573Z,9.95
2017-09-17T06:43:40.519Z,10.16
2017-09-17T06:44:50.472Z,10.30
2017-09-17T06:45:59.423Z,10.59
2017-09-17T06:47:10.438Z,10.61
2017-09-17T06:48:20.576Z,10.89
2017-09-17T06:49:31.513Z,10.92
2017-09-17T06:50:43.390Z,10.98
2017-09-17T06:51:54.566Z,11.15
2017-09-17T06:53:04.554Z,11.40
2017-09-17T06:54:14.531Z,11.34
2017-09-17T06:55:24.403Z,11.56
2017-09-17T06:56:34.493Z,11.58
2017-09-17T06:57:44.408Z,11.64
2017-09-17T06:58:53.426Z,11.87
2017-09-17T07:00:04.500Z,11.66
2017-09-17T07:01:16.540Z,11.39
2017-09-17T07:02:26.786Z,11.37
2017-09-17T07:03:35.287Z,11.21
2017-09-17T07:04:43.405Z,11.14
2017-09-17T07:05:52.360Z,11.27
2017-09-17T07:07:00.285Z,11.23
2017-09-17T07:08:08.415Z,11.32
2017-09-17T07:09:16.178Z,11.46
2017-09-17T07:10:24.430Z,11.24
2017-09-17T07:11:33.326Z,11.29
2017-09-17T07:12:41.313Z,11.32
2017-09-17T07:13:49.249Z,11.39
2017-09-17T07:14:58.275Z,11.59
2017-09-17T07:16:07.292Z,11.69
2017-09-17T07:17:15.263Z,11.83
2017-09-17T07:18:23.239Z,11.91
2017-09-17T07:19:31.336Z,11.90
2017-09-17T07:20:41.357Z,11.87
2017-09-17T07:21:49.222Z,11.93
2017-09-17T07:22:57.191Z,11.96
2017-09-17T07:24:06.155Z,11.92
2017-09-17T07:25:13.728Z,11.95
2017-09-17T07:26:21.180Z,12.10
2017-09-17T07:27:29.149Z,12.07
2017-09-17T07:28:37.180Z,12.06
2017-09-17T07:29:44.701Z,11.63
2017-09-17T07:30:53.130Z,11.51
2017-09-17T07:32:00.149Z,11.54
2017-09-17T07:33:07.606Z,11.60
2017-09-17T07:34:15.058Z,11.70
2017-09-17T07:35:22.162Z,11.89
2017-09-17T07:36:30.499Z,11.90
2017-09-17T07:37:39.240Z,11.86
2017-09-17T07:38:47.112Z,11.93
2017-09-17T07:39:54.663Z,11.93
2017-09-17T07:41:02.210Z,11.92
2017-09-17T07:42:10.191Z,11.94
2017-09-17T07:43:18.126Z,11.92
2017-09-17T07:44:26.168Z,11.75
2017-09-17T07:45:33.757Z,11.66
2017-09-17T07:46:42.182Z,11.73
2017-09-17T07:47:50.154Z,11.71
2017-09-17T07:48:57.683Z,11.78
2017-09-17T07:50:05.273Z,11.94
2017-09-17T07:51:13.222Z,12.00
2017-09-17T07:52:20.634Z,12.07
2017-09-17T07:53:28.097Z,11.89
2017-09-17T07:54:36.177Z,11.71
2017-09-17T07:55:45.087Z,12.06
2017-09-17T07:56:54.159Z,12.16
2017-09-17T07:58:02.191Z,12.28
2017-09-17T07:59:10.182Z,12.39
2017-09-17T08:00:19.265Z,12.58
2017-09-17T08:01:27.148Z,12.60
2017-09-17T08:02:35.094Z,12.66
2017-09-17T08:03:43.318Z,12.86
2017-09-17T08:04:52.164Z,12.76
2017-09-17T08:05:59.199Z,12.75
2017-09-17T08:07:06.927Z,12.53
2017-09-17T08:08:15.030Z,12.65
2017-09-17T08:09:23.232Z,12.70
2017-09-17T08:10:31.202Z,12.81
2017-09-17T08:11:38.576Z,13.02
2017-09-17T08:12:46.075Z,13.23
2017-09-17T08:13:53.587Z,13.31
2017-09-17T08:15:01.760Z,13.36
2017-09-17T08:16:10.183Z,13.41
2017-09-17T08:17:17.547Z,13.42
2017-09-17T08:18:25.084Z,13.52
2017-09-17T08:19:33.226Z,13.07
2017-09-17T08:20:41.123Z,12.99
2017-09-17T08:21:49.063Z,13.11
2017-09-17T08:22:56.106Z,13.19
2017-09-17T08:24:03.855Z,13.38
2017-09-17T08:25:11.904Z,13.46
2017-09-17T08:26:19.343Z,13.38
2017-09-17T08:27:28.084Z,13.48
2017-09-17T08:28:35.518Z,13.75
2017-09-17T08:29:44.230Z,13.77
2017-09-17T08:30:52.996Z,14.15
2017-09-17T08:32:00.100Z,14.14
2017-09-17T08:33:07.964Z,14.21
2017-09-17T08:34:16.051Z,13.89
2017-09-17T08:35:23.551Z,14.14
2017-09-17T08:36:31.152Z,14.29
2017-09-17T08:37:39.015Z,14.50
2017-09-17T08:38:46.047Z,14.47
2017-09-17T08:39:54.503Z,14.54
2017-09-17T08:41:03.142Z,14.65
2017-09-17T08:42:12.071Z,14.55
2017-09-17T08:43:20.040Z,14.19
2017-09-17T08:44:29.039Z,14.19
2017-09-17T08:45:37.116Z,14.33
2017-09-17T08:46:45.375Z,14.34
2017-09-17T08:47:53.051Z,14.14
2017-09-17T08:49:00.540Z,13.92
2017-09-17T08:50:07.531Z,14.37
2017-09-17T08:51:14.969Z,14.69
2017-09-17T08:52:23.005Z,14.81
2017-09-17T08:53:32.096Z,15.02
2017-09-17T08:54:41.044Z,15.05
2017-09-17T08:55:50.392Z,15.09
2017-09-17T08:57:00.140Z,14.83
2017-09-17T08:58:09.156Z,14.71
2017-09-17T08:59:18.116Z,14.76
2017-09-17T09:00:26.028Z,14.75
2017-09-17T09:01:35.020Z,14.69
2017-09-17T09:02:44.451Z,14.79
2017-09-17T09:03:54.205Z,14.27
2017-09-17T09:05:02.113Z,14.35
2017-09-17T09:06:16.125Z,14.65
2017-09-17T09:07:24.303Z,15.05
2017-09-17T09:08:32.047Z,15.25
2017-09-17T09:09:40.909Z,14.40
2017-09-17T09:10:49.904Z,14.78
2017-09-17T09:11:59.027Z,15.02
2017-09-17T09:13:08.062Z,15.12
2017-09-17T09:14:16.054Z,15.39
2017-09-17T09:15:24.998Z,15.58
2017-09-17T09:16:35.027Z,15.37
2017-09-17T09:17:44.077Z,15.39
2017-09-17T09:18:52.124Z,15.49
2017-09-17T09:19:59.463Z,15.56
2017-09-17T09:21:07.084Z,15.61
2017-09-17T09:22:14.975Z,15.75
2017-09-17T09:23:24.063Z,15.87
2017-09-17T09:24:31.937Z,15.80
2017-09-17T09:25:39.100Z,15.56
2017-09-17T09:26:46.969Z,15.59
2017-09-17T09:27:55.998Z,15.66
2017-09-17T09:29:05.087Z,15.49
2017-09-17T09:30:13.030Z,15.66
2017-09-17T09:31:23.062Z,16.00
2017-09-17T09:32:34.116Z,16.10
2017-09-17T09:33:41.947Z,15.99
2017-09-17T09:34:50.350Z,16.01
2017-09-17T09:36:00.037Z,16.00
2017-09-17T09:37:09.883Z,15.83
2017-09-17T09:38:18.750Z,16.06
2017-09-17T09:39:27.901Z,15.88
2017-09-17T09:40:36.019Z,15.94
2017-09-17T09:41:43.959Z,16.10
2017-09-17T09:42:51.931Z,16.37
2017-09-17T09:43:59.964Z,16.60
2017-09-17T09:45:07.835Z,16.81
2017-09-17T09:46:15.983Z,16.94
2017-09-17T09:47:24.915Z,16.41
2017-09-17T09:48:33.998Z,16.54
2017-09-17T09:49:43.081Z,16.82
2017-09-17T09:50:52.898Z,17.03
2017-09-17T09:52:01.007Z,17.01
2017-09-17T09:53:08.903Z,17.02
2017-09-17T09:54:16.924Z,17.22
2017-09-17T09:55:25.023Z,17.29
2017-09-17T09:56:33.987Z,17.48
2017-09-17T09:57:41.967Z,17.72
2017-09-17T09:58:49.982Z,17.63
2017-09-17T10:00:00.084Z,17.64
2017-09-17T10:01:10.903Z,17.83
2017-09-17T10:02:20.014Z,17.95
2017-09-17T10:03:27.874Z,17.21
2017-09-17T10:04:36.894Z,17.20
2017-09-17T10:05:47.773Z,17.53
2017-09-17T10:06:57.101Z,17.67
2017-09-17T10:08:06.003Z,17.59
2017-09-17T10:09:14.896Z,17.54
2017-09-17T10:10:25.986Z,17.34
2017-09-17T10:11:38.118Z,17.53
2017-09-17T10:12:47.947Z,17.70
2017-09-17T10:14:00.130Z,17.76
2017-09-17T10:15:12.531Z,17.64
2017-09-17T10:18:34.110Z,17.54
2017-09-17T10:19:44.918Z,16.74
2017-09-17T10:20:54.948Z,16.88
2017-09-17T10:22:05.048Z,16.31
2017-09-17T10:23:15.082Z,16.39
2017-09-17T10:24:29.163Z,16.47
2017-09-17T10:25:59.847Z,16.70
2017-09-17T10:27:13.343Z,16.60
2017-09-17T10:28:46.975Z,16.78
2017-09-17T10:29:55.695Z,16.98
2017-09-17T10:31:35.764Z,17.09
2017-09-17T10:32:51.047Z,17.01
2017-09-17T10:34:02.424Z,16.64
2017-09-17T10:35:12.071Z,16.68
2017-09-17T10:36:22.919Z,16.90
2017-09-17T10:37:32.978Z,17.05
2017-09-17T10:38:44.137Z,17.21
2017-09-17T10:39:54.198Z,17.32
2017-09-17T10:41:03.931Z,17.40
2017-09-17T10:42:14.954Z,17.74
2017-09-17T10:43:25.597Z,17.85
2017-09-17T10:44:35.985Z,17.87
2017-09-17T10:45:46.957Z,17.76
2017-09-17T10:46:57.954Z,17.70
2017-09-17T10:48:10.082Z,17.78
2017-09-17T10:49:19.927Z,18.00
2017-09-17T10:50:30.165Z,18.11
2017-09-17T10:51:40.027Z,17.59
2017-09-17T10:52:49.995Z,17.86
2017-09-17T10:54:02.175Z,18.24
2017-09-17T10:55:11.900Z,18.13
2017-09-17T10:56:22.078Z,18.29
2017-09-17T10:57:35.063Z,18.54
2017-09-17T10:58:45.071Z,18.70
2017-09-17T10:59:57.191Z,18.29
2017-09-17T11:01:05.776Z,18.48
2017-09-17T11:02:15.059Z,17.86
2017-09-17T11:03:31.019Z,17.85
2017-09-17T11:04:43.001Z,18.37
2017-09-17T11:05:52.881Z,18.81
2017-09-17T11:07:03.847Z,19.17
2017-09-17T11:08:15.142Z,19.07
2017-09-17T11:09:24.022Z,19.08
2017-09-17T11:10:33.915Z,19.23
2017-09-17T11:11:42.917Z,19.54
2017-09-17T11:12:53.007Z,19.77
2017-09-17T11:14:04.812Z,19.86
2017-09-17T11:15:14.035Z,19.82
2017-09-17T11:16:26.942Z,19.28
2017-09-17T11:17:38.947Z,19.02
2017-09-17T11:18:48.977Z,19.35
2017-09-17T11:20:00.024Z,19.27
2017-09-17T11:21:09.945Z,19.66
2017-09-17T11:22:19.789Z,19.91
2017-09-17T11:23:29.865Z,19.91
2017-09-17T11:24:40.904Z,19.79
2017-09-17T11:25:53.817Z,19.84
2017-09-17T11:27:04.988Z,19.71
2017-09-17T11:28:16.950Z,19.36
2017-09-17T11:29:26.951Z,18.79
2017-09-17T11:30:37.592Z,18.46
2017-09-17T11:31:46.970Z,18.73
2017-09-17T11:32:58.186Z,18.62
2017-09-17T11:34:08.848Z,18.99
2017-09-17T11:35:20.929Z,19.37
2017-09-17T11:36:32.963Z,18.91
2017-09-17T11:37:42.909Z,19.15
2017-09-17T11:38:53.907Z,19.36
2017-09-17T11:40:04.801Z,19.26
2017-09-17T11:41:15.944Z,19.37
2017-09-17T11:42:26.800Z,19.54
2017-09-17T11:43:38.020Z,19.62
2017-09-17T11:44:48.947Z,19.47
2017-09-17T11:46:00.914Z,19.42
2017-09-17T11:47:12.937Z,19.56
2017-09-17T11:48:23.038Z,19.50
2017-09-17T11:49:32.797Z,19.43
2017-09-17T11:50:44.985Z,19.09
2017-09-17T11:51:56.916Z,18.60
2017-09-17T11:53:07.877Z,18.42
2017-09-17T11:54:20.087Z,18.55
2017-09-17T11:55:30.753Z,18.81
2017-09-17T11:56:39.493Z,18.97
2017-09-17T11:57:48.794Z,19.25
2017-09-17T11:58:58.960Z,19.40
2017-09-17T12:00:08.899Z,19.30
2017-09-17T12:01:18.966Z,19.31
2017-09-17T12:02:28.457Z,19.62
2017-09-17T12:03:37.847Z,19.52
2017-09-17T12:04:47.850Z,19.46
2017-09-17T12:05:57.892Z,18.45
2017-09-17T12:07:09.818Z,18.46
2017-09-17T12:08:20.786Z,18.36
2017-09-17T12:09:31.881Z,18.23
2017-09-17T12:10:42.874Z,18.11
2017-09-17T12:11:54.899Z,17.80
2017-09-17T12:13:05.816Z,17.87
2017-09-17T12:14:15.899Z,18.12
2017-09-17T12:15:25.878Z,18.09
2017-09-17T12:16:35.763Z,18.06
2017-09-17T12:17:45.734Z,18.05
2017-09-17T12:18:56.853Z,17.92
2017-09-17T12:20:06.682Z,17.86
2017-09-17T12:21:16.951Z,17.86
2017-09-17T12:22:26.831Z,17.58
2017-09-17T12:23:35.701Z,17.92
2017-09-17T12:24:45.844Z,18.17
2017-09-17T12:25:56.688Z,18.34
2017-09-17T12:27:07.022Z,18.55
2017-09-17T12:28:17.717Z,18.58
2017-09-17T12:29:27.699Z,18.50
2017-09-17T12:30:37.840Z,18.05
2017-09-17T12:31:51.084Z,18.12
2017-09-17T12:33:03.731Z,18.28
2017-09-17T12:34:13.844Z,18.24
2017-09-17T12:35:24.757Z,18.19
2017-09-17T12:36:35.715Z,17.95
2017-09-17T12:37:46.830Z,17.95
2017-09-17T12:38:56.809Z,17.83
2017-09-17T12:40:08.837Z,17.57
2017-09-17T12:41:19.736Z,17.54
2017-09-17T12:42:31.680Z,17.78
2017-09-17T12:43:41.821Z,17.82
2017-09-17T12:44:53.844Z,17.90
2017-09-17T12:46:04.697Z,17.70
2017-09-17T12:47:15.809Z,17.46
2017-09-17T12:48:25.788Z,17.44
2017-09-17T12:49:40.778Z,17.71
2017-09-17T12:50:50.790Z,18.03
2017-09-17T12:52:00.641Z,18.14
2017-09-17T12:53:11.732Z,18.15
2017-09-17T12:54:25.942Z,18.19
2017-09-17T12:55:37.950Z,18.27
2017-09-17T12:56:47.792Z,18.31
2017-09-17T12:57:58.959Z,18.31
2017-09-17T12:59:09.774Z,18.23
2017-09-17T13:00:19.778Z,18.04
2017-09-17T13:01:29.618Z,17.96
2017-09-17T13:02:40.715Z,17.99
2017-09-17T13:03:56.940Z,17.78
2017-09-17T13:05:11.983Z,17.60
2017-09-17T13:06:27.822Z,17.26
2017-09-17T13:07:40.743Z,17.38
2017-09-17T13:08:54.631Z,17.70
2017-09-17T13:10:09.777Z,17.70
2017-09-17T13:11:22.789Z,17.71
2017-09-17T13:12:42.634Z,17.79
2017-09-17T13:13:56.917Z,17.80
2017-09-17T13:15:08.745Z,17.80
2017-09-17T13:16:22.675Z,17.58
2017-09-17T13:17:34.757Z,17.63
2017-09-17T13:18:45.659Z,17.90
2017-09-17T13:19:57.602Z,17.84
2017-09-17T13:21:09.503Z,17.97
2017-09-17T13:22:20.613Z,18.11
2017-09-17T13:23:31.690Z,18.08
2017-09-17T13:24:39.835Z,18.01
2017-09-17T13:25:50.694Z,17.67
2017-09-17T13:27:01.748Z,17.33
2017-09-17T13:28:14.677Z,17.24
2017-09-17T13:29:27.464Z,17.26
2017-09-17T13:30:37.553Z,17.32
2017-09-17T13:31:48.343Z,17.39
2017-09-17T13:32:57.883Z,17.44
2017-09-17T13:34:06.536Z,17.61
2017-09-17T13:35:15.428Z,17.47
2017-09-17T13:36:23.591Z,17.38
2017-09-17T13:37:32.652Z,17.71
2017-09-17T13:38:42.427Z,17.99
2017-09-17T13:39:50.502Z,18.03
2017-09-17T13:41:02.740Z,18.15
2017-09-17T13:42:12.353Z,18.25
2017-09-17T13:43:21.407Z,18.30
2017-09-17T13:44:31.508Z,18.27
2017-09-17T13:45:41.482Z,18.19
2017-09-17T13:46:51.499Z,18.17
2017-09-17T13:48:02.534Z,18.08
2017-09-17T13:49:12.363Z,17.99
2017-09-17T13:50:23.613Z,17.84
2017-09-17T13:51:32.563Z,17.75
2017-09-17T13:52:43.648Z,17.82
2017-09-17T13:53:53.597Z,17.70
2017-09-17T13:55:04.667Z,17.61
2017-09-17T13:56:14.443Z,17.53
2017-09-17T13:57:24.369Z,17.47
2017-09-17T13:58:35.562Z,17.43
2017-09-17T14:00:03.752Z,17.24
2017-09-17T14:01:26.493Z,17.16
2017-09-17T14:02:42.614Z,17.17
2017-09-17T14:04:03.599Z,17.18
2017-09-17T14:05:18.575Z,17.15
2017-09-17T14:06:48.812Z,17.14
2017-09-17T14:08:17.734Z,17.21
2017-09-17T14:09:43.672Z,17.17
2017-09-17T14:11:00.671Z,17.10
2017-09-17T14:12:12.618Z,17.07
2017-09-17T14:13:26.745Z,17.03
2017-09-17T14:14:42.592Z,17.00
2017-09-17T14:15:56.614Z,17.01
2017-09-17T14:17:09.838Z,16.98
2017-09-17T14:18:24.624Z,17.02
2017-09-17T14:19:37.719Z,17.03
2017-09-17T14:20:51.540Z,16.96
2017-09-17T14:22:04.399Z,17.05
2017-09-17T14:23:18.795Z,16.88
2017-09-17T14:24:33.752Z,16.88
2017-09-17T14:25:48.334Z,16.81
2017-09-17T14:27:01.493Z,16.68
2017-09-17T14:28:15.678Z,16.75
2017-09-17T14:29:29.645Z,16.76
2017-09-17T14:30:43.616Z,16.63
2017-09-17T14:31:57.442Z,16.56
2017-09-17T14:33:11.541Z,16.49
2017-09-17T14:34:26.778Z,16.32
2017-09-17T14:35:43.708Z,16.21
2017-09-17T14:36:57.784Z,16.02
2017-09-17T14:38:15.762Z,15.87
2017-09-17T14:39:32.732Z,15.35
2017-09-17T14:40:47.717Z,15.22
2017-09-17T14:42:00.555Z,15.01
2017-09-17T14:43:16.527Z,15.05
2017-09-17T14:44:29.776Z,15.22
2017-09-17T14:45:43.543Z,15.23
2017-09-17T14:46:58.638Z,15.06
2017-09-17T14:48:14.537Z,15.10
2017-09-17T14:49:29.360Z,14.99
2017-09-17T14:50:45.509Z,14.66
2017-09-17T14:52:00.392Z,14.43
2017-09-17T14:53:17.039Z,14.33
2017-09-17T14:54:30.555Z,14.23
2017-09-17T14:55:45.675Z,13.94
2017-09-17T14:57:03.366Z,13.79
2017-09-17T14:58:20.725Z,13.49
2017-09-17T14:59:34.389Z,13.26
2017-09-17T15:00:47.481Z,13.43
2017-09-17T15:02:07.237Z,13.42
2017-09-17T15:03:22.495Z,13.23
2017-09-17T15:04:38.571Z,13.08
2017-09-17T15:05:57.501Z,12.88
2017-09-17T15:07:08.373Z,12.79
2017-09-17T15:08:18.528Z,12.63
2017-09-17T15:09:31.618Z,12.74